sensor_id;sensor_type;location;lat;lon;timestamp;pressure;altitude;pressure_sealevel;temperature;humidity
3132;BME280;62090;52.330;9.104;2024-03-22T00:02:07;101532.69;;;11.25;98.54
3132;BME280;62090;52.330;9.104;2024-03-22T00:04:34;101524.94;;;11.22;98.65
3132;BME280;62090;52.330;9.104;2024-03-22T00:07:00;101511.06;;;11.14;98.74
3132;BME280;62090;52.330;9.104;2024-03-22T00:09:26;101539.06;;;11.37;98.31
3132;BME280;62090;52.330;9.104;2024-03-22T00:11:53;101489.94;;;11.18;97.53
3132;BME280;62090;52.330;9.104;2024-03-22T00:14:19;101505.72;;;11.31;97.32
3132;BME280;62090;52.330;9.104;2024-03-22T00:16:48;101525.91;;;11.51;97.17
3132;BME280;62090;52.330;9.104;2024-03-22T00:19:14;101515.28;;;11.38;97.57
3132;BME280;62090;52.330;9.104;2024-03-22T00:21:40;101529.34;;;11.51;97.60
3132;BME280;62090;52.330;9.104;2024-03-22T00:24:07;101495.50;;;11.31;97.46
3132;BME280;62090;52.330;9.104;2024-03-22T00:26:33;101476.88;;;11.34;97.41
3132;BME280;62090;52.330;9.104;2024-03-22T00:28:59;101514.06;;;11.53;97.44
3132;BME280;62090;52.330;9.104;2024-03-22T00:31:26;101464.03;;;11.31;97.37
3132;BME280;62090;52.330;9.104;2024-03-22T00:33:54;101488.34;;;11.47;97.92
3132;BME280;62090;52.330;9.104;2024-03-22T00:36:21;101485.22;;;11.55;97.74
3132;BME280;62090;52.330;9.104;2024-03-22T00:38:47;101474.81;;;11.49;98.03
3132;BME280;62090;52.330;9.104;2024-03-22T00:41:13;101455.44;;;11.29;98.11
3132;BME280;62090;52.330;9.104;2024-03-22T00:43:40;101477.22;;;11.44;98.31
3132;BME280;62090;52.330;9.104;2024-03-22T00:46:06;101467.81;;;11.43;98.21
3132;BME280;62090;52.330;9.104;2024-03-22T00:48:32;101479.03;;;11.49;98.52
3132;BME280;62090;52.330;9.104;2024-03-22T00:51:01;101493.69;;;11.54;98.95
3132;BME280;62090;52.330;9.104;2024-03-22T00:53:28;101459.16;;;11.38;97.98
3132;BME280;62090;52.330;9.104;2024-03-22T00:55:55;101436.78;;;11.30;98.68
3132;BME280;62090;52.330;9.104;2024-03-22T00:58:21;101475.97;;;11.59;98.76
3132;BME280;62090;52.330;9.104;2024-03-22T01:00:47;101470.91;;;11.60;98.17
3132;BME280;62090;52.330;9.104;2024-03-22T01:03:14;101454.66;;;11.57;97.90
3132;BME280;62090;52.330;9.104;2024-03-22T01:05:40;101471.72;;;11.59;98.37
3132;BME280;62090;52.330;9.104;2024-03-22T01:08:09;101445.84;;;11.47;98.29
3132;BME280;62090;52.330;9.104;2024-03-22T01:10:35;101477.09;;;11.67;98.08
3132;BME280;62090;52.330;9.104;2024-03-22T01:13:01;101471.06;;;11.65;97.79
3132;BME280;62090;52.330;9.104;2024-03-22T01:15:28;101396.66;;;11.26;98.18
3132;BME280;62090;52.330;9.104;2024-03-22T01:17:54;101416.06;;;11.48;98.04
3132;BME280;62090;52.330;9.104;2024-03-22T01:20:21;101457.56;;;11.69;97.82
3132;BME280;62090;52.330;9.104;2024-03-22T01:22:47;101408.38;;;11.46;97.59
3132;BME280;62090;52.330;9.104;2024-03-22T01:25:16;101432.91;;;11.69;97.64
3132;BME280;62090;52.330;9.104;2024-03-22T01:27:42;101418.84;;;11.55;97.80
3132;BME280;62090;52.330;9.104;2024-03-22T01:30:10;101260.41;;;10.66;97.78
3132;BME280;62090;52.330;9.104;2024-03-22T01:32:36;101366.88;;;11.25;97.37
3132;BME280;62090;52.330;9.104;2024-03-22T01:35:03;101428.97;;;11.52;98.01
3132;BME280;62090;52.330;9.104;2024-03-22T01:37:30;101383.06;;;11.27;97.94
3132;BME280;62090;52.330;9.104;2024-03-22T01:39:56;101354.72;;;11.18;98.12
3132;BME280;62090;52.330;9.104;2024-03-22T01:42:25;101399.78;;;11.44;98.72
3132;BME280;62090;52.330;9.104;2024-03-22T01:44:51;101414.47;;;11.51;99.42
3132;BME280;62090;52.330;9.104;2024-03-22T01:47:18;101410.59;;;11.62;99.10
3132;BME280;62090;52.330;9.104;2024-03-22T01:49:44;101413.88;;;11.60;98.86
3132;BME280;62090;52.330;9.104;2024-03-22T01:52:10;101388.81;;;11.47;98.91
3132;BME280;62090;52.330;9.104;2024-03-22T01:54:37;101408.06;;;11.64;99.27
3132;BME280;62090;52.330;9.104;2024-03-22T01:57:03;101398.63;;;11.61;98.98
3132;BME280;62090;52.330;9.104;2024-03-22T01:59:33;101397.03;;;11.65;98.95
3132;BME280;62090;52.330;9.104;2024-03-22T02:01:59;101395.13;;;11.58;99.00
3132;BME280;62090;52.330;9.104;2024-03-22T02:04:26;101377.34;;;11.61;98.64
3132;BME280;62090;52.330;9.104;2024-03-22T02:06:52;101349.06;;;11.55;98.87
3132;BME280;62090;52.330;9.104;2024-03-22T02:09:18;101351.53;;;11.52;99.35
3132;BME280;62090;52.330;9.104;2024-03-22T02:11:45;101341.53;;;11.58;99.71
3132;BME280;62090;52.330;9.104;2024-03-22T02:14:11;101357.16;;;11.68;99.42
3132;BME280;62090;52.330;9.104;2024-03-22T02:16:40;101351.94;;;11.65;99.74
3132;BME280;62090;52.330;9.104;2024-03-22T02:19:06;101349.31;;;11.62;100.00
3132;BME280;62090;52.330;9.104;2024-03-22T02:21:32;101333.81;;;11.56;100.00
3132;BME280;62090;52.330;9.104;2024-03-22T02:24:01;101306.84;;;11.36;100.00
3132;BME280;62090;52.330;9.104;2024-03-22T02:26:28;101213.31;;;10.81;100.00
3132;BME280;62090;52.330;9.104;2024-03-22T02:28:54;101306.97;;;11.40;100.00
3132;BME280;62090;52.330;9.104;2024-03-22T02:31:20;101323.59;;;11.56;100.00
3132;BME280;62090;52.330;9.104;2024-03-22T02:33:47;101324.53;;;11.60;100.00
3132;BME280;62090;52.330;9.104;2024-03-22T02:36:13;101316.84;;;11.58;100.00
3132;BME280;62090;52.330;9.104;2024-03-22T02:38:39;101316.84;;;11.58;100.00
3132;BME280;62090;52.330;9.104;2024-03-22T02:41:08;101237.31;;;11.15;100.00
3132;BME280;62090;52.330;9.104;2024-03-22T02:43:34;101329.91;;;11.67;100.00
3132;BME280;62090;52.330;9.104;2024-03-22T02:46:00;101309.34;;;11.63;100.00
3132;BME280;62090;52.330;9.104;2024-03-22T02:48:27;101329.91;;;11.67;100.00
3132;BME280;62090;52.330;9.104;2024-03-22T02:50:55;101330.72;;;11.66;100.00
3132;BME280;62090;52.330;9.104;2024-03-22T02:53:22;101327.34;;;11.69;100.00
3132;BME280;62090;52.330;9.104;2024-03-22T02:55:48;101314.69;;;11.72;100.00
3132;BME280;62090;52.330;9.104;2024-03-22T02:58:20;101300.69;;;11.58;100.00
3132;BME280;62090;52.330;9.104;2024-03-22T03:00:47;101292.16;;;11.57;100.00
3132;BME280;62090;52.330;9.104;2024-03-22T03:03:14;101285.50;;;11.64;100.00
3132;BME280;62090;52.330;9.104;2024-03-22T03:05:41;101247.31;;;11.37;100.00
3132;BME280;62090;52.330;9.104;2024-03-22T03:08:07;101274.28;;;11.57;100.00
3132;BME280;62090;52.330;9.104;2024-03-22T03:10:33;101257.09;;;11.52;100.00
3132;BME280;62090;52.330;9.104;2024-03-22T03:13:00;101285.50;;;11.62;100.00
3132;BME280;62090;52.330;9.104;2024-03-22T03:15:29;101264.47;;;11.42;100.00
3132;BME280;62090;52.330;9.104;2024-03-22T03:17:55;101282.59;;;11.50;100.00
3132;BME280;62090;52.330;9.104;2024-03-22T03:20:21;101271.25;;;11.40;100.00
3132;BME280;62090;52.330;9.104;2024-03-22T03:22:47;101302.94;;;11.49;100.00
3132;BME280;62090;52.330;9.104;2024-03-22T03:25:14;101275.00;;;11.53;100.00
3132;BME280;62090;52.330;9.104;2024-03-22T03:27:40;101259.59;;;11.50;100.00
3132;BME280;62090;52.330;9.104;2024-03-22T03:30:07;101256.25;;;11.53;100.00
3132;BME280;62090;52.330;9.104;2024-03-22T03:32:36;101248.47;;;11.48;100.00
3132;BME280;62090;52.330;9.104;2024-03-22T03:35:03;101259.06;;;11.60;100.00
3132;BME280;62090;52.330;9.104;2024-03-22T03:37:30;101252.19;;;11.59;100.00
3132;BME280;62090;52.330;9.104;2024-03-22T03:39:57;101254.81;;;11.61;100.00
3132;BME280;62090;52.330;9.104;2024-03-22T03:42:23;101228.19;;;11.53;100.00
3132;BME280;62090;52.330;9.104;2024-03-22T03:44:49;101240.31;;;11.60;100.00
3132;BME280;62090;52.330;9.104;2024-03-22T03:47:15;101230.16;;;11.61;100.00
3132;BME280;62090;52.330;9.104;2024-03-22T03:49:45;101221.56;;;11.59;100.00
3132;BME280;62090;52.330;9.104;2024-03-22T03:52:11;101222.44;;;11.60;100.00
3132;BME280;62090;52.330;9.104;2024-03-22T03:54:37;101206.19;;;11.56;100.00
3132;BME280;62090;52.330;9.104;2024-03-22T03:57:04;101216.47;;;11.59;100.00
3132;BME280;62090;52.330;9.104;2024-03-22T03:59:30;101217.38;;;11.61;100.00
3132;BME280;62090;52.330;9.104;2024-03-22T04:01:56;101198.09;;;11.41;100.00
3132;BME280;62090;52.330;9.104;2024-03-22T04:04:23;101201.69;;;11.48;100.00
3132;BME280;62090;52.330;9.104;2024-03-22T04:06:51;101125.78;;;11.09;100.00
3132;BME280;62090;52.330;9.104;2024-03-22T04:09:18;101200.34;;;11.60;100.00
3132;BME280;62090;52.330;9.104;2024-03-22T04:11:44;101201.31;;;11.65;100.00
3132;BME280;62090;52.330;9.104;2024-03-22T04:14:10;101197.03;;;11.63;100.00
3132;BME280;62090;52.330;9.104;2024-03-22T04:16:36;101168.72;;;11.55;100.00
3132;BME280;62090;52.330;9.104;2024-03-22T04:19:03;101156.78;;;11.54;100.00
3132;BME280;62090;52.330;9.104;2024-03-22T04:21:29;101175.91;;;11.68;100.00
3132;BME280;62090;52.330;9.104;2024-03-22T04:23:58;101177.59;;;11.69;100.00
3132;BME280;62090;52.330;9.104;2024-03-22T04:26:24;101155.19;;;11.58;100.00
3132;BME280;62090;52.330;9.104;2024-03-22T04:28:50;101131.09;;;11.48;100.00
3132;BME280;62090;52.330;9.104;2024-03-22T04:31:17;101166.38;;;11.63;100.00
3132;BME280;62090;52.330;9.104;2024-03-22T04:33:43;101181.16;;;11.73;100.00
3132;BME280;62090;52.330;9.104;2024-03-22T04:36:09;101145.75;;;11.55;100.00
3132;BME280;62090;52.330;9.104;2024-03-22T04:38:35;101165.63;;;11.67;100.00
3132;BME280;62090;52.330;9.104;2024-03-22T04:41:04;101168.56;;;11.79;100.00
3132;BME280;62090;52.330;9.104;2024-03-22T04:43:31;101123.53;;;11.53;100.00
3132;BME280;62090;52.330;9.104;2024-03-22T04:45:57;101167.75;;;11.81;100.00
3132;BME280;62090;52.330;9.104;2024-03-22T04:48:23;101157.47;;;11.78;100.00
3132;BME280;62090;52.330;9.104;2024-03-22T04:50:51;101172.91;;;11.83;100.00
3132;BME280;62090;52.330;9.104;2024-03-22T04:53:17;101136.63;;;11.65;100.00
3132;BME280;62090;52.330;9.104;2024-03-22T04:55:44;101119.41;;;11.56;100.00
3132;BME280;62090;52.330;9.104;2024-03-22T04:58:17;101152.28;;;11.75;100.00
3132;BME280;62090;52.330;9.104;2024-03-22T05:00:44;101137.50;;;11.65;100.00
3132;BME280;62090;52.330;9.104;2024-03-22T05:03:11;101143.78;;;11.76;100.00
3132;BME280;62090;52.330;9.104;2024-03-22T05:05:38;101141.19;;;11.73;100.00
3132;BME280;62090;52.330;9.104;2024-03-22T05:08:05;101132.50;;;11.68;100.00
3132;BME280;62090;52.330;9.104;2024-03-22T05:10:32;101104.09;;;11.56;100.00
3132;BME280;62090;52.330;9.104;2024-03-22T05:12:59;101142.22;;;11.81;100.00
3132;BME280;62090;52.330;9.104;2024-03-22T05:15:28;101106.06;;;11.66;100.00
3132;BME280;62090;52.330;9.104;2024-03-22T05:17:56;101112.09;;;11.70;100.00
3132;BME280;62090;52.330;9.104;2024-03-22T05:20:23;101120.22;;;11.87;100.00
3132;BME280;62090;52.330;9.104;2024-03-22T05:22:49;101101.38;;;11.81;100.00
3132;BME280;62090;52.330;9.104;2024-03-22T05:25:16;101072.13;;;11.70;100.00
3132;BME280;62090;52.330;9.104;2024-03-22T05:27:42;101092.03;;;11.82;100.00
3132;BME280;62090;52.330;9.104;2024-03-22T05:30:10;101100.84;;;11.95;100.00
3132;BME280;62090;52.330;9.104;2024-03-22T05:32:39;101094.06;;;11.97;100.00
3132;BME280;62090;52.330;9.104;2024-03-22T05:35:06;101073.44;;;11.88;100.00
3132;BME280;62090;52.330;9.104;2024-03-22T05:37:33;101091.88;;;12.12;100.00
3132;BME280;62090;52.330;9.104;2024-03-22T05:40:00;101024.44;;;11.69;100.00
3132;BME280;62090;52.330;9.104;2024-03-22T05:42:26;101096.94;;;12.09;100.00
3132;BME280;62090;52.330;9.104;2024-03-22T05:44:52;101091.56;;;11.98;100.00
3132;BME280;62090;52.330;9.104;2024-03-22T05:47:19;101103.78;;;12.10;100.00
3132;BME280;62090;52.330;9.104;2024-03-22T05:49:47;101106.41;;;12.13;100.00
3132;BME280;62090;52.330;9.104;2024-03-22T05:52:14;101038.03;;;11.68;100.00
3132;BME280;62090;52.330;9.104;2024-03-22T05:54:40;101096.03;;;12.07;100.00
3132;BME280;62090;52.330;9.104;2024-03-22T05:57:07;101102.03;;;12.09;100.00
3132;BME280;62090;52.330;9.104;2024-03-22T05:59:33;101115.03;;;12.18;100.00
3132;BME280;62090;52.330;9.104;2024-03-22T06:01:59;101060.09;;;11.99;100.00
3132;BME280;62090;52.330;9.104;2024-03-22T06:04:26;101054.94;;;11.98;100.00
3132;BME280;62090;52.330;9.104;2024-03-22T06:06:55;101083.50;;;12.16;100.00
3132;BME280;62090;52.330;9.104;2024-03-22T06:09:21;101063.72;;;12.09;100.00
3132;BME280;62090;52.330;9.104;2024-03-22T06:11:49;101069.66;;;12.08;100.00
3132;BME280;62090;52.330;9.104;2024-03-22T06:14:16;101053.31;;;12.00;100.00
3132;BME280;62090;52.330;9.104;2024-03-22T06:16:42;101055.00;;;12.01;100.00
3132;BME280;62090;52.330;9.104;2024-03-22T06:19:08;101009.25;;;11.74;100.00
3132;BME280;62090;52.330;9.104;2024-03-22T06:21:34;101056.13;;;12.12;100.00
3132;BME280;62090;52.330;9.104;2024-03-22T06:24:04;101056.16;;;12.13;100.00
3132;BME280;62090;52.330;9.104;2024-03-22T06:26:30;101062.91;;;12.10;100.00
3132;BME280;62090;52.330;9.104;2024-03-22T06:28:56;101083.75;;;12.28;100.00
3132;BME280;62090;52.330;9.104;2024-03-22T06:31:22;101046.00;;;12.15;100.00
3132;BME280;62090;52.330;9.104;2024-03-22T06:33:49;101074.41;;;12.28;100.00
3132;BME280;62090;52.330;9.104;2024-03-22T06:36:15;101020.88;;;11.97;100.00
3132;BME280;62090;52.330;9.104;2024-03-22T06:41:28;101085.78;;;12.41;100.00
3132;BME280;62090;52.330;9.104;2024-03-22T06:43:54;101072.03;;;12.36;100.00
3132;BME280;62090;52.330;9.104;2024-03-22T06:46:20;101073.81;;;12.40;100.00
3132;BME280;62090;52.330;9.104;2024-03-22T06:48:46;101066.38;;;12.51;100.00
3132;BME280;62090;52.330;9.104;2024-03-22T06:51:16;101069.94;;;12.57;100.00
3132;BME280;62090;52.330;9.104;2024-03-22T06:53:43;101049.19;;;12.44;100.00
3132;BME280;62090;52.330;9.104;2024-03-22T06:56:10;101055.34;;;12.53;100.00
3132;BME280;62090;52.330;9.104;2024-03-22T06:58:39;101024.44;;;12.41;100.00
3132;BME280;62090;52.330;9.104;2024-03-22T07:01:05;101015.94;;;12.42;100.00
3132;BME280;62090;52.330;9.104;2024-03-22T07:03:32;101040.22;;;12.62;100.00
3132;BME280;62090;52.330;9.104;2024-03-22T07:05:58;101048.84;;;12.67;100.00
3132;BME280;62090;52.330;9.104;2024-03-22T07:08:24;100992.03;;;12.40;100.00
3132;BME280;62090;52.330;9.104;2024-03-22T07:10:51;101039.56;;;12.73;100.00
3132;BME280;62090;52.330;9.104;2024-03-22T07:13:17;101015.31;;;12.52;100.00
3132;BME280;62090;52.330;9.104;2024-03-22T07:15:46;100978.22;;;12.32;100.00
3132;BME280;62090;52.330;9.104;2024-03-22T07:18:13;100996.44;;;12.47;100.00
3132;BME280;62090;52.330;9.104;2024-03-22T07:20:39;101039.75;;;12.82;100.00
3132;BME280;62090;52.330;9.104;2024-03-22T07:23:06;101037.19;;;12.82;100.00
3132;BME280;62090;52.330;9.104;2024-03-22T07:25:32;101034.72;;;12.86;100.00
3132;BME280;62090;52.330;9.104;2024-03-22T07:27:58;101008.03;;;12.72;100.00
3132;BME280;62090;52.330;9.104;2024-03-22T07:30:24;101043.34;;;12.90;100.00
3132;BME280;62090;52.330;9.104;2024-03-22T07:32:53;100994.38;;;12.72;100.00
3132;BME280;62090;52.330;9.104;2024-03-22T07:35:20;101022.66;;;12.79;100.00
3132;BME280;62090;52.330;9.104;2024-03-22T07:37:48;101009.13;;;12.85;100.00
3132;BME280;62090;52.330;9.104;2024-03-22T07:40:15;101030.59;;;12.93;100.00
3132;BME280;62090;52.330;9.104;2024-03-22T07:42:41;101017.72;;;12.88;100.00
3132;BME280;62090;52.330;9.104;2024-03-22T07:45:08;101016.84;;;12.88;100.00
3132;BME280;62090;52.330;9.104;2024-03-22T07:47:35;101030.75;;;13.02;100.00
3132;BME280;62090;52.330;9.104;2024-03-22T07:50:04;101035.00;;;13.00;100.00
3132;BME280;62090;52.330;9.104;2024-03-22T07:52:31;101000.63;;;12.86;100.00
3132;BME280;62090;52.330;9.104;2024-03-22T07:54:57;100978.44;;;12.85;100.00
3132;BME280;62090;52.330;9.104;2024-03-22T07:57:23;100966.38;;;12.78;100.00
3132;BME280;62090;52.330;9.104;2024-03-22T07:59:50;101028.47;;;13.14;100.00
3132;BME280;62090;52.330;9.104;2024-03-22T08:02:16;101007.97;;;13.13;100.00
3132;BME280;62090;52.330;9.104;2024-03-22T08:04:42;100996.94;;;13.15;100.00
3132;BME280;62090;52.330;9.104;2024-03-22T08:07:11;101016.81;;;13.30;100.00
3132;BME280;62090;52.330;9.104;2024-03-22T08:09:37;101008.19;;;13.25;100.00
3132;BME280;62090;52.330;9.104;2024-03-22T08:12:04;100993.56;;;13.16;100.00
3132;BME280;62090;52.330;9.104;2024-03-22T08:14:31;100998.81;;;13.25;100.00
3132;BME280;62090;52.330;9.104;2024-03-22T08:16:57;101011.97;;;13.45;100.00
3132;BME280;62090;52.330;9.104;2024-03-22T08:19:23;100999.19;;;13.46;100.00
3132;BME280;62090;52.330;9.104;2024-03-22T08:21:49;101005.38;;;13.59;100.00
3132;BME280;62090;52.330;9.104;2024-03-22T08:24:19;100926.88;;;13.10;100.00
3132;BME280;62090;52.330;9.104;2024-03-22T08:26:45;100996.75;;;13.54;100.00
3132;BME280;62090;52.330;9.104;2024-03-22T08:29:11;100952.97;;;13.37;100.00
3132;BME280;62090;52.330;9.104;2024-03-22T08:31:37;100997.84;;;13.68;99.48
3132;BME280;62090;52.330;9.104;2024-03-22T08:34:03;100978.00;;;13.55;99.93
3132;BME280;62090;52.330;9.104;2024-03-22T08:36:30;100993.56;;;13.67;98.71
3132;BME280;62090;52.330;9.104;2024-03-22T08:38:56;101001.06;;;13.57;99.31
3132;BME280;62090;52.330;9.104;2024-03-22T08:41:25;100995.97;;;13.60;99.79
3132;BME280;62090;52.330;9.104;2024-03-22T08:43:51;100962.47;;;13.43;100.00
3132;BME280;62090;52.330;9.104;2024-03-22T08:46:17;100973.81;;;13.59;100.00
3132;BME280;62090;52.330;9.104;2024-03-22T08:48:44;100977.34;;;13.67;100.00
3132;BME280;62090;52.330;9.104;2024-03-22T08:51:10;100951.63;;;13.61;99.56
3132;BME280;62090;52.330;9.104;2024-03-22T08:53:36;100962.09;;;13.74;98.16
3132;BME280;62090;52.330;9.104;2024-03-22T08:56:03;100952.47;;;13.58;98.40
3132;BME280;62090;52.330;9.104;2024-03-22T08:58:32;100957.59;;;13.61;98.19
3132;BME280;62090;52.330;9.104;2024-03-22T09:00:58;100949.13;;;13.65;97.25
3132;BME280;62090;52.330;9.104;2024-03-22T09:03:24;100896.56;;;13.33;97.65
3132;BME280;62090;52.330;9.104;2024-03-22T09:05:52;100935.47;;;13.63;97.75
3132;BME280;62090;52.330;9.104;2024-03-22T09:08:18;100959.59;;;13.79;97.08
3132;BME280;62090;52.330;9.104;2024-03-22T09:10:45;100944.81;;;13.61;97.69
3132;BME280;62090;52.330;9.104;2024-03-22T09:13:11;100948.59;;;13.84;96.50
3132;BME280;62090;52.330;9.104;2024-03-22T09:15:40;100931.06;;;14.15;92.44
3132;BME280;62090;52.330;9.104;2024-03-22T09:18:06;100958.31;;;14.10;93.56
3132;BME280;62090;52.330;9.104;2024-03-22T09:20:33;100953.13;;;14.07;93.86
3132;BME280;62090;52.330;9.104;2024-03-22T09:23:00;100939.34;;;13.95;94.34
3132;BME280;62090;52.330;9.104;2024-03-22T09:25:27;100898.09;;;13.77;94.48
3132;BME280;62090;52.330;9.104;2024-03-22T09:27:53;100948.00;;;14.05;94.51
3132;BME280;62090;52.330;9.104;2024-03-22T09:30:19;100934.31;;;14.03;94.19
3132;BME280;62090;52.330;9.104;2024-03-22T09:32:48;100931.03;;;14.13;93.03
3132;BME280;62090;52.330;9.104;2024-03-22T09:35:14;100923.34;;;14.13;92.95
3132;BME280;62090;52.330;9.104;2024-03-22T09:37:41;100907.94;;;14.10;92.05
3132;BME280;62090;52.330;9.104;2024-03-22T09:40:08;100897.69;;;14.10;91.93
3132;BME280;62090;52.330;9.104;2024-03-22T09:42:37;100920.13;;;14.29;90.92
3132;BME280;62090;52.330;9.104;2024-03-22T09:45:08;100922.75;;;14.32;90.41
3132;BME280;62090;52.330;9.104;2024-03-22T09:47:36;100910.72;;;14.30;90.24
3132;BME280;62090;52.330;9.104;2024-03-22T09:50:06;100834.22;;;13.89;89.25
3132;BME280;62090;52.330;9.104;2024-03-22T09:52:33;100918.59;;;14.42;88.92
3132;BME280;62090;52.330;9.104;2024-03-22T09:54:59;100880.81;;;14.29;88.89
3132;BME280;62090;52.330;9.104;2024-03-22T09:57:26;100912.81;;;14.60;87.63
3132;BME280;62090;52.330;9.104;2024-03-22T09:59:52;100921.44;;;14.68;87.83
3132;BME280;62090;52.330;9.104;2024-03-22T10:02:20;100903.34;;;14.54;86.17
3132;BME280;62090;52.330;9.104;2024-03-22T10:04:47;100927.41;;;14.64;86.05
3132;BME280;62090;52.330;9.104;2024-03-22T10:07:17;100919.63;;;14.59;86.97
3132;BME280;62090;52.330;9.104;2024-03-22T10:09:44;100926.44;;;14.56;86.96
3132;BME280;62090;52.330;9.104;2024-03-22T10:12:10;100924.91;;;14.71;87.69
3132;BME280;62090;52.330;9.104;2024-03-22T10:14:36;100891.25;;;14.43;90.17
3132;BME280;62090;52.330;9.104;2024-03-22T10:17:03;100929.09;;;14.65;90.35
3132;BME280;62090;52.330;9.104;2024-03-22T10:19:29;100920.53;;;14.63;91.23
3132;BME280;62090;52.330;9.104;2024-03-22T10:22:03;100899.03;;;14.49;91.53
3132;BME280;62090;52.330;9.104;2024-03-22T10:24:33;100912.91;;;14.70;90.62
3132;BME280;62090;52.330;9.104;2024-03-22T10:26:59;100910.44;;;14.75;90.13
3132;BME280;62090;52.330;9.104;2024-03-22T10:29:26;100905.31;;;14.81;89.13
3132;BME280;62090;52.330;9.104;2024-03-22T10:31:54;100884.81;;;14.81;88.88
3132;BME280;62090;52.330;9.104;2024-03-22T10:34:21;100902.16;;;15.06;88.47
3132;BME280;62090;52.330;9.104;2024-03-22T10:36:49;100897.97;;;15.19;87.25
3132;BME280;62090;52.330;9.104;2024-03-22T10:39:17;100889.44;;;15.21;86.06
3132;BME280;62090;52.330;9.104;2024-03-22T10:41:46;100899.69;;;15.17;86.74
3132;BME280;62090;52.330;9.104;2024-03-22T10:44:14;100898.88;;;15.26;86.02
3132;BME280;62090;52.330;9.104;2024-03-22T10:46:45;100860.19;;;15.03;86.10
3132;BME280;62090;52.330;9.104;2024-03-22T10:49:15;100890.41;;;15.33;85.71
3132;BME280;62090;52.330;9.104;2024-03-22T10:51:43;100888.63;;;15.29;85.88
3132;BME280;62090;52.330;9.104;2024-03-22T10:54:12;100880.91;;;15.24;84.32
3132;BME280;62090;52.330;9.104;2024-03-22T10:56:40;100865.34;;;15.07;84.24
3132;BME280;62090;52.330;9.104;2024-03-22T10:59:13;100888.56;;;15.19;84.82
3132;BME280;62090;52.330;9.104;2024-03-22T11:01:44;100890.31;;;15.23;83.38
3132;BME280;62090;52.330;9.104;2024-03-22T11:04:11;100794.03;;;14.65;84.16
3132;BME280;62090;52.330;9.104;2024-03-22T11:06:38;100891.09;;;15.13;84.13
3132;BME280;62090;52.330;9.104;2024-03-22T11:09:04;100891.03;;;15.09;83.18
3132;BME280;62090;52.330;9.104;2024-03-22T11:11:31;100885.84;;;15.03;84.49
3132;BME280;62090;52.330;9.104;2024-03-22T11:13:57;100891.00;;;15.04;84.92
3132;BME280;62090;52.330;9.104;2024-03-22T11:16:26;100853.25;;;14.90;85.22
3132;BME280;62090;52.330;9.104;2024-03-22T11:18:52;100883.22;;;14.97;84.08
3132;BME280;62090;52.330;9.104;2024-03-22T11:21:19;100880.66;;;14.97;84.67
3132;BME280;62090;52.330;9.104;2024-03-22T11:23:45;100861.78;;;14.86;84.27
3132;BME280;62090;52.330;9.104;2024-03-22T11:26:12;100872.09;;;14.90;84.87
3132;BME280;62090;52.330;9.104;2024-03-22T11:28:38;100862.63;;;14.86;84.71
3132;BME280;62090;52.330;9.104;2024-03-22T11:31:05;100869.50;;;14.89;85.10
3132;BME280;62090;52.330;9.104;2024-03-22T11:33:34;100813.59;;;14.54;84.89
3132;BME280;62090;52.330;9.104;2024-03-22T11:36:01;100868.66;;;14.91;84.86
3132;BME280;62090;52.330;9.104;2024-03-22T11:38:28;100861.81;;;14.90;84.81
3132;BME280;62090;52.330;9.104;2024-03-22T11:40:55;100864.38;;;14.89;83.85
3132;BME280;62090;52.330;9.104;2024-03-22T11:43:23;100858.34;;;14.87;84.23
3132;BME280;62090;52.330;9.104;2024-03-22T11:45:50;100859.25;;;14.92;84.52
3132;BME280;62090;52.330;9.104;2024-03-22T11:48:16;100841.97;;;14.71;83.84
3132;BME280;62090;52.330;9.104;2024-03-22T11:50:45;100828.16;;;14.57;83.40
3132;BME280;62090;52.330;9.104;2024-03-22T11:53:12;100862.47;;;14.68;84.26
3132;BME280;62090;52.330;9.104;2024-03-22T11:55:38;100858.94;;;14.57;84.25
3132;BME280;62090;52.330;9.104;2024-03-22T11:58:04;100859.63;;;14.42;84.34
3132;BME280;62090;52.330;9.104;2024-03-22T12:00:31;100845.13;;;14.43;84.73
3132;BME280;62090;52.330;9.104;2024-03-22T12:02:58;100813.31;;;14.27;84.75
3132;BME280;62090;52.330;9.104;2024-03-22T12:05:24;100841.75;;;14.50;84.73
3132;BME280;62090;52.330;9.104;2024-03-22T12:07:54;100858.88;;;14.51;85.07
3132;BME280;62090;52.330;9.104;2024-03-22T12:10:20;100847.53;;;14.33;85.00
3132;BME280;62090;52.330;9.104;2024-03-22T12:12:46;100867.16;;;14.33;85.67
3132;BME280;62090;52.330;9.104;2024-03-22T12:15:13;100824.19;;;14.09;85.64
3132;BME280;62090;52.330;9.104;2024-03-22T12:17:39;100843.81;;;14.06;85.52
3132;BME280;62090;52.330;9.104;2024-03-22T12:20:08;100848.06;;;14.05;86.58
3132;BME280;62090;52.330;9.104;2024-03-22T12:22:34;100779.06;;;13.48;87.53
3132;BME280;62090;52.330;9.104;2024-03-22T12:25:04;100863.41;;;14.02;88.20
3132;BME280;62090;52.330;9.104;2024-03-22T12:27:30;100854.00;;;14.00;88.44
3132;BME280;62090;52.330;9.104;2024-03-22T12:29:57;100856.44;;;13.90;89.03
3132;BME280;62090;52.330;9.104;2024-03-22T12:32:23;100834.09;;;13.79;89.25
3132;BME280;62090;52.330;9.104;2024-03-22T12:34:49;100822.78;;;13.65;91.08
3132;BME280;62090;52.330;9.104;2024-03-22T12:37:16;100845.25;;;13.85;93.54
3132;BME280;62090;52.330;9.104;2024-03-22T12:39:42;100839.88;;;13.66;95.58
3132;BME280;62090;52.330;9.104;2024-03-22T12:42:11;100795.84;;;13.29;97.22
3132;BME280;62090;52.330;9.104;2024-03-22T12:44:37;100855.16;;;13.60;98.35
3132;BME280;62090;52.330;9.104;2024-03-22T12:47:04;100864.63;;;13.64;98.24
3132;BME280;62090;52.330;9.104;2024-03-22T12:49:30;100856.06;;;13.62;98.16
3132;BME280;62090;52.330;9.104;2024-03-22T12:51:57;100828.47;;;13.42;98.08
3132;BME280;62090;52.330;9.104;2024-03-22T12:54:23;100852.56;;;13.57;98.11
3132;BME280;62090;52.330;9.104;2024-03-22T12:56:49;100872.13;;;13.51;98.40